createdAt,value
2023-03-16T00:01:41.029Z,2.95
2023-03-16T00:04:09.029Z,3.03
2023-03-16T00:06:38.361Z,2.25
2023-03-16T00:09:06.360Z,3.05
2023-03-16T00:11:34.315Z,2.90
2023-03-16T00:14:04.186Z,2.03
2023-03-16T00:16:32.195Z,3.83
2023-03-16T00:19:00.644Z,2.90
2023-03-16T00:21:30.619Z,2.40
2023-03-16T00:24:00.062Z,3.35
2023-03-16T00:26:28.185Z,2.40
2023-03-16T00:28:56.140Z,2.40
2023-03-16T00:31:25.231Z,2.38
2023-03-16T00:33:53.474Z,2.08
2023-03-16T00:36:22.879Z,1.45
2023-03-16T00:38:51.340Z,1.23
2023-03-16T00:41:22.968Z,1.40
2023-03-16T00:43:51.838Z,1.73
2023-03-16T00:46:19.981Z,1.70
2023-03-16T00:48:48.975Z,1.40
2023-03-16T00:51:19.176Z,1.77
2023-03-16T00:53:48.398Z,1.27
2023-03-16T00:56:17.805Z,1.63
2023-03-16T00:58:47.656Z,1.60
2023-03-16T01:01:18.278Z,1.23
2023-03-16T01:03:47.632Z,1.13
2023-03-16T01:06:20.924Z,1.17
2023-03-16T01:08:48.874Z,1.40
2023-03-16T01:11:18.585Z,1.42
2023-03-16T01:13:49.522Z,1.90
2023-03-16T01:16:19.041Z,1.42
2023-03-16T01:18:47.812Z,1.50
2023-03-16T01:21:15.977Z,1.55
2023-03-16T01:23:44.521Z,1.42
2023-03-16T01:26:13.080Z,1.45
2023-03-16T01:28:40.959Z,1.38
2023-03-16T01:31:12.697Z,1.42
2023-03-16T01:33:41.207Z,1.25
2023-03-16T01:36:12.984Z,1.50
2023-03-16T01:38:41.259Z,1.60
2023-03-16T01:41:09.956Z,1.30
2023-03-16T01:43:40.459Z,1.23
2023-03-16T01:46:19.214Z,1.40
2023-03-16T01:48:56.176Z,1.60
2023-03-16T01:51:29.335Z,1.58
2023-03-16T01:54:00.358Z,1.10
2023-03-16T01:56:35.075Z,1.60
2023-03-16T01:59:07.054Z,1.15
2023-03-16T02:01:36.959Z,1.75
2023-03-16T02:04:15.106Z,1.42
2023-03-16T02:06:44.637Z,1.80
2023-03-16T02:09:13.295Z,1.58
2023-03-16T02:11:41.655Z,1.98
2023-03-16T02:14:12.092Z,1.60
2023-03-16T02:16:42.528Z,1.58
2023-03-16T02:19:15.182Z,1.33
2023-03-16T02:21:54.605Z,1.00
2023-03-16T02:24:22.581Z,1.63
2023-03-16T02:26:56.160Z,1.42
2023-03-16T02:29:54.189Z,1.50
2023-03-16T02:32:24.263Z,1.73
2023-03-16T02:34:52.187Z,1.27
2023-03-16T02:37:20.266Z,1.55
2023-03-16T02:39:48.178Z,1.35
2023-03-16T02:42:19.549Z,1.15
2023-03-16T02:44:52.117Z,1.00
2023-03-16T02:47:28.385Z,1.00
2023-03-16T02:49:56.256Z,1.38
2023-03-16T02:52:24.149Z,1.15
2023-03-16T02:54:52.010Z,1.10
2023-03-16T02:57:19.912Z,0.90
2023-03-16T02:59:47.875Z,0.90
2023-03-16T03:02:17.187Z,1.30
2023-03-16T03:04:46.337Z,1.17
2023-03-16T03:07:14.628Z,0.70
2023-03-16T03:09:43.287Z,1.17
2023-03-16T03:12:11.804Z,0.85
2023-03-16T03:14:40.627Z,1.08
2023-03-16T03:17:10.100Z,1.05
2023-03-16T03:19:39.372Z,1.17
2023-03-16T03:22:07.442Z,1.33
2023-03-16T03:24:36.307Z,1.35
2023-03-16T03:27:05.863Z,1.10
2023-03-16T03:29:35.397Z,1.30
2023-03-16T03:32:03.501Z,1.58
2023-03-16T03:34:32.133Z,1.08
2023-03-16T03:37:01.498Z,1.17
2023-03-16T03:39:29.450Z,1.35
2023-03-16T03:41:57.370Z,1.63
2023-03-16T03:44:27.048Z,1.00
2023-03-16T03:46:55.042Z,1.50
2023-03-16T03:49:23.000Z,1.17
2023-03-16T03:51:51.409Z,0.93
2023-03-16T03:54:20.750Z,1.00
2023-03-16T03:56:48.643Z,1.00
2023-03-16T03:59:16.520Z,0.90
2023-03-16T04:01:44.944Z,1.30
2023-03-16T04:04:12.852Z,1.00
2023-03-16T04:06:41.753Z,1.55
2023-03-16T04:09:10.032Z,1.20
2023-03-16T04:11:39.549Z,1.02
2023-03-16T04:14:07.791Z,1.40
2023-03-16T04:16:35.937Z,0.90
2023-03-16T04:19:04.426Z,1.08
2023-03-16T04:21:32.359Z,1.10
2023-03-16T04:24:01.516Z,1.20
2023-03-16T04:26:29.582Z,1.10
2023-03-16T04:28:59.076Z,1.10
2023-03-16T04:31:27.305Z,1.10
2023-03-16T04:33:55.333Z,1.52
2023-03-16T04:36:24.655Z,1.42
2023-03-16T04:38:52.831Z,1.83
2023-03-16T04:41:21.091Z,1.65
2023-03-16T04:43:48.975Z,1.30
2023-03-16T04:46:18.300Z,1.58
2023-03-16T04:48:46.292Z,1.52
2023-03-16T04:51:14.240Z,1.85
2023-03-16T04:53:42.203Z,1.80
2023-03-16T04:56:10.113Z,1.90
2023-03-16T04:58:37.951Z,1.80
2023-03-16T05:01:06.106Z,1.33
2023-03-16T05:03:35.926Z,1.85
2023-03-16T05:06:03.882Z,2.10
2023-03-16T05:08:32.110Z,1.92
2023-03-16T05:11:00.419Z,1.92
2023-03-16T05:13:28.380Z,2.40
2023-03-16T05:15:56.362Z,1.80
2023-03-16T05:18:24.884Z,1.77
2023-03-16T05:20:56.538Z,1.75
2023-03-16T05:23:25.018Z,2.58
2023-03-16T05:25:52.896Z,1.95
2023-03-16T05:28:20.769Z,2.25
2023-03-16T05:30:48.686Z,2.72
2023-03-16T05:33:16.607Z,2.78
2023-03-16T05:35:44.525Z,2.38
2023-03-16T05:38:15.894Z,2.33
2023-03-16T05:40:43.892Z,2.45
2023-03-16T05:43:11.758Z,6.53
2023-03-16T05:45:39.650Z,3.08
2023-03-16T05:48:07.721Z,2.38
2023-03-16T05:50:35.662Z,2.40
2023-03-16T05:53:04.345Z,2.83
2023-03-16T05:55:33.622Z,3.55
2023-03-16T05:58:04.390Z,4.35
2023-03-16T06:00:33.637Z,6.72
2023-03-16T06:03:01.695Z,5.22
2023-03-16T06:05:30.486Z,3.28
2023-03-16T06:07:58.352Z,3.28
2023-03-16T06:10:27.028Z,2.90
2023-03-16T06:12:57.113Z,3.00
2023-03-16T06:15:26.632Z,2.60
2023-03-16T06:17:54.499Z,3.78
2023-03-16T06:20:22.707Z,2.85
2023-03-16T06:22:50.560Z,3.25
2023-03-16T06:25:18.815Z,3.17
2023-03-16T06:27:46.814Z,2.97
2023-03-16T06:30:17.303Z,3.40
2023-03-16T06:32:46.387Z,2.70
2023-03-16T06:35:14.997Z,2.78
2023-03-16T06:37:44.023Z,3.53
2023-03-16T06:40:13.468Z,2.95
2023-03-16T06:42:41.403Z,2.90
2023-03-16T06:45:11.196Z,2.90
2023-03-16T06:47:40.410Z,3.13
2023-03-16T06:50:09.158Z,3.42
2023-03-16T06:52:37.133Z,2.72
2023-03-16T06:55:05.612Z,2.75
2023-03-16T06:57:33.477Z,3.30
2023-03-16T07:00:03.535Z,3.00
2023-03-16T07:02:32.307Z,3.20
2023-03-16T07:05:01.581Z,2.90
2023-03-16T07:07:31.271Z,2.20
2023-03-16T07:09:59.153Z,3.03
2023-03-16T07:12:27.108Z,3.50
2023-03-16T07:14:54.995Z,1.98
2023-03-16T07:17:22.887Z,3.10
2023-03-16T07:19:50.847Z,2.10
2023-03-16T07:22:20.066Z,2.60
2023-03-16T07:24:51.912Z,2.60
2023-03-16T07:27:19.797Z,2.55
2023-03-16T07:29:47.656Z,2.55
2023-03-16T07:32:15.526Z,4.15
2023-03-16T07:34:44.558Z,5.13
2023-03-16T07:37:18.357Z,4.20
2023-03-16T07:39:52.569Z,3.53
2023-03-16T07:42:23.111Z,5.10
2023-03-16T07:44:52.133Z,7.10
2023-03-16T07:47:23.833Z,3.45
2023-03-16T07:49:56.152Z,2.50
2023-03-16T07:52:24.228Z,2.22
2023-03-16T07:54:53.552Z,2.97
2023-03-16T07:57:21.734Z,5.38
2023-03-16T07:59:49.678Z,3.97
2023-03-16T08:02:21.674Z,3.75
2023-03-16T08:04:49.663Z,6.68
2023-03-16T08:07:17.572Z,2.85
2023-03-16T08:09:46.144Z,4.75
2023-03-16T08:12:15.782Z,6.30
2023-03-16T08:14:45.507Z,6.35
2023-03-16T08:17:13.869Z,4.65
2023-03-16T08:19:42.783Z,5.60
2023-03-16T08:22:10.760Z,6.53
2023-03-16T08:24:39.370Z,6.07
2023-03-16T08:27:09.961Z,5.32
2023-03-16T08:29:40.888Z,5.82
2023-03-16T08:32:08.884Z,5.07
2023-03-16T08:34:36.974Z,5.30
2023-03-16T08:37:05.020Z,5.40
2023-03-16T08:39:33.609Z,4.97
2023-03-16T08:42:01.493Z,6.05
2023-03-16T08:44:29.481Z,5.70
2023-03-16T08:46:59.421Z,6.75
2023-03-16T08:49:27.362Z,6.18
2023-03-16T08:51:55.398Z,6.57
2023-03-16T08:54:23.803Z,6.30
2023-03-16T08:56:51.852Z,7.43
2023-03-16T08:59:29.429Z,6.55
2023-03-16T09:02:00.637Z,6.28
2023-03-16T09:04:30.128Z,6.78
2023-03-16T09:07:08.318Z,7.22
2023-03-16T09:09:37.673Z,6.53
2023-03-16T09:12:06.675Z,6.05
2023-03-16T09:14:35.424Z,5.10
2023-03-16T09:17:05.240Z,4.88
2023-03-16T09:19:50.086Z,5.38
2023-03-16T09:22:19.810Z,6.88
2023-03-16T09:24:48.545Z,5.97
2023-03-16T09:27:16.917Z,6.00
2023-03-16T09:29:45.553Z,5.63
2023-03-16T09:32:15.460Z,5.15
2023-03-16T09:34:43.430Z,5.43
2023-03-16T09:37:11.604Z,5.35
2023-03-16T09:39:39.766Z,4.90
2023-03-16T09:42:15.722Z,6.55
2023-03-16T09:44:55.440Z,6.13
2023-03-16T09:47:28.707Z,4.90
2023-03-16T09:50:00.100Z,4.10
2023-03-16T09:52:36.275Z,4.10
2023-03-16T09:55:12.070Z,3.50
2023-03-16T09:57:43.266Z,3.35
2023-03-16T10:00:18.480Z,3.30
2023-03-16T10:03:00.101Z,3.47
2023-03-16T10:05:28.779Z,4.63
2023-03-16T10:08:07.940Z,3.38
2023-03-16T10:10:59.795Z,4.70
2023-03-16T10:13:35.317Z,4.45
2023-03-16T10:16:09.547Z,4.05
2023-03-16T10:18:45.002Z,3.67
2023-03-16T10:21:15.342Z,3.00
2023-03-16T10:23:43.952Z,3.50
2023-03-16T10:26:16.097Z,3.15
2023-03-16T10:28:45.696Z,3.97
2023-03-16T10:31:14.793Z,3.83
2023-03-16T10:33:44.141Z,2.97
2023-03-16T10:36:17.172Z,3.78
2023-03-16T10:38:49.274Z,3.17
2023-03-16T10:41:28.212Z,3.17
2023-03-16T10:43:58.500Z,4.03
2023-03-16T10:46:28.444Z,2.78
2023-03-16T10:49:01.389Z,3.28
2023-03-16T10:51:32.001Z,3.72
2023-03-16T10:54:10.993Z,3.80
2023-03-16T10:56:40.382Z,3.33
2023-03-16T10:59:17.212Z,3.15
2023-03-16T11:01:50.218Z,3.63
2023-03-16T11:04:20.824Z,2.97
2023-03-16T11:06:53.901Z,2.75
2023-03-16T11:09:26.185Z,3.72
2023-03-16T11:11:54.098Z,2.20
2023-03-16T11:14:26.220Z,2.45
2023-03-16T11:17:02.344Z,1.98
2023-03-16T11:19:35.780Z,7.20
2023-03-16T11:22:08.385Z,2.67
2023-03-16T11:24:46.151Z,3.00
2023-03-16T11:27:23.099Z,2.22
2023-03-16T11:30:00.850Z,3.30
2023-03-16T11:32:32.272Z,2.70
2023-03-16T11:35:04.620Z,2.60
2023-03-16T11:37:46.277Z,3.42
2023-03-16T11:40:29.156Z,2.65
2023-03-16T11:43:07.140Z,3.10
2023-03-16T11:45:42.914Z,3.05
2023-03-16T11:48:43.999Z,3.35
2023-03-16T11:51:25.673Z,2.83
2023-03-16T11:54:04.134Z,3.80
2023-03-16T11:56:35.899Z,3.33
2023-03-16T11:59:40.873Z,2.75
2023-03-16T12:02:32.090Z,2.33
2023-03-16T12:05:22.336Z,2.25
2023-03-16T12:08:01.677Z,2.95
2023-03-16T12:10:33.105Z,2.75
2023-03-16T12:13:21.205Z,2.58
2023-03-16T12:15:53.507Z,2.60
2023-03-16T12:18:27.480Z,2.17
2023-03-16T12:20:59.892Z,1.70
2023-03-16T12:23:34.660Z,2.13
2023-03-16T12:26:03.784Z,1.70
2023-03-16T12:28:33.593Z,2.78
2023-03-16T12:31:12.211Z,2.20
2023-03-16T12:34:02.378Z,2.28
2023-03-16T12:37:10.234Z,2.60
2023-03-16T12:39:59.223Z,2.25
2023-03-16T12:42:43.718Z,1.98
2023-03-16T12:45:17.849Z,2.67
2023-03-16T12:47:53.362Z,1.83
2023-03-16T12:50:21.933Z,2.47
2023-03-16T12:52:52.114Z,2.63
2023-03-16T12:55:28.092Z,2.22
2023-03-16T12:58:03.056Z,2.17
2023-03-16T13:00:35.884Z,2.60
2023-03-16T13:03:05.241Z,2.00
2023-03-16T13:05:35.693Z,1.65
2023-03-16T13:08:10.660Z,1.88
2023-03-16T13:10:41.847Z,2.00
2023-03-16T13:13:13.124Z,2.22
2023-03-16T13:15:41.854Z,1.90
2023-03-16T13:18:25.468Z,1.80
2023-03-16T13:20:59.180Z,2.45
2023-03-16T13:23:30.227Z,1.75
2023-03-16T13:26:18.812Z,2.95
2023-03-16T13:28:54.083Z,1.70
2023-03-16T13:31:28.087Z,2.00
2023-03-16T13:34:00.429Z,1.75
2023-03-16T13:36:29.878Z,1.58
2023-03-16T13:39:05.209Z,1.88
2023-03-16T13:41:34.488Z,1.60
2023-03-16T13:44:02.965Z,2.40
2023-03-16T13:46:31.901Z,1.30
2023-03-16T13:49:00.845Z,2.92
2023-03-16T13:51:32.041Z,2.35
2023-03-16T13:54:00.100Z,1.42
2023-03-16T13:56:29.491Z,1.42
2023-03-16T13:59:01.197Z,1.80
2023-03-16T14:01:32.121Z,2.42
2023-03-16T14:04:08.680Z,2.20
2023-03-16T14:06:37.922Z,2.33
2023-03-16T14:09:08.172Z,1.95
2023-03-16T14:11:36.154Z,2.40
2023-03-16T14:14:16.059Z,1.98
2023-03-16T14:16:45.745Z,2.42
2023-03-16T14:19:20.402Z,2.42
2023-03-16T14:21:48.377Z,2.47
2023-03-16T14:24:25.433Z,2.72
2023-03-16T14:26:53.322Z,1.98
2023-03-16T14:29:26.597Z,2.30
2023-03-16T14:31:55.568Z,2.33
2023-03-16T14:34:30.069Z,2.35
2023-03-16T14:37:09.431Z,2.03
2023-03-16T14:39:37.578Z,2.20
2023-03-16T14:42:08.004Z,2.17
2023-03-16T14:44:40.873Z,1.92
2023-03-16T14:47:09.853Z,1.67
2023-03-16T14:49:41.521Z,2.10
2023-03-16T14:52:22.303Z,2.15
2023-03-16T14:54:52.052Z,2.20
2023-03-16T14:57:20.287Z,2.25
2023-03-16T14:59:49.884Z,2.15
2023-03-16T15:02:20.426Z,2.55
2023-03-16T15:04:49.824Z,3.00
2023-03-16T15:07:26.097Z,2.90
2023-03-16T15:09:56.049Z,1.95
2023-03-16T15:12:26.441Z,2.35
2023-03-16T15:15:13.698Z,3.33
2023-03-16T15:17:45.173Z,2.58
2023-03-16T15:20:15.870Z,2.20
2023-03-16T15:22:46.439Z,1.65
2023-03-16T15:25:31.056Z,2.10
2023-03-16T15:27:59.267Z,2.13
2023-03-16T15:30:30.802Z,2.30
2023-03-16T15:32:58.931Z,2.67
2023-03-16T15:35:28.040Z,1.35
2023-03-16T15:37:56.525Z,1.65
2023-03-16T15:40:27.389Z,1.30
2023-03-16T15:42:55.709Z,1.50
2023-03-16T15:45:25.480Z,1.40
2023-03-16T15:47:55.308Z,1.98
2023-03-16T15:50:25.843Z,1.85
2023-03-16T15:52:58.215Z,2.58
2023-03-16T15:55:33.181Z,1.88
2023-03-16T15:58:03.723Z,2.28
2023-03-16T16:00:35.079Z,1.90
2023-03-16T16:03:07.385Z,1.73
2023-03-16T16:05:36.282Z,1.88
2023-03-16T16:08:08.159Z,2.35
2023-03-16T16:10:39.706Z,2.15
2023-03-16T16:13:07.846Z,1.83
2023-03-16T16:15:37.719Z,2.33
2023-03-16T16:18:26.570Z,1.98
2023-03-16T16:20:56.377Z,2.05
2023-03-16T16:23:25.112Z,2.40
2023-03-16T16:25:54.470Z,1.73
2023-03-16T16:28:25.185Z,1.77
2023-03-16T16:30:53.157Z,2.72
2023-03-16T16:33:27.602Z,2.33
2023-03-16T16:35:57.474Z,2.10
2023-03-16T16:38:26.138Z,2.47
2023-03-16T16:40:55.237Z,2.03
2023-03-16T16:43:33.459Z,2.00
2023-03-16T16:46:03.426Z,2.58
2023-03-16T16:48:36.772Z,2.65
2023-03-16T16:51:07.061Z,2.53
2023-03-16T16:53:35.735Z,3.05
2023-03-16T16:56:04.959Z,2.70
2023-03-16T16:58:33.308Z,3.28
2023-03-16T17:01:02.036Z,3.00
2023-03-16T17:03:30.870Z,2.80
2023-03-16T17:06:00.292Z,2.38
2023-03-16T17:08:29.588Z,2.83
2023-03-16T17:10:58.527Z,2.80
2023-03-16T17:13:31.148Z,2.67
2023-03-16T17:16:00.242Z,2.80
2023-03-16T17:18:28.785Z,3.55
2023-03-16T17:20:58.034Z,3.50
2023-03-16T17:23:31.263Z,3.25
2023-03-16T17:26:01.857Z,2.65
2023-03-16T17:28:32.804Z,2.75
2023-03-16T17:31:00.880Z,4.00
2023-03-16T17:33:29.690Z,3.85
2023-03-16T17:35:57.695Z,3.60
2023-03-16T17:38:26.558Z,3.05
2023-03-16T17:40:56.611Z,2.83
2023-03-16T17:43:26.359Z,3.20
2023-03-16T17:45:54.593Z,3.10
2023-03-16T17:48:26.183Z,3.33
2023-03-16T17:50:55.404Z,3.60
2023-03-16T17:53:23.387Z,3.25
2023-03-16T17:55:51.389Z,3.33
2023-03-16T17:58:27.984Z,3.20
2023-03-16T18:00:56.491Z,2.60
2023-03-16T18:03:29.362Z,3.00
2023-03-16T18:05:58.605Z,2.97
2023-03-16T18:08:28.442Z,3.15
2023-03-16T18:10:58.757Z,3.10
2023-03-16T18:13:30.685Z,2.67
2023-03-16T18:15:59.473Z,3.05
2023-03-16T18:18:29.332Z,2.97
2023-03-16T18:21:00.449Z,3.45
2023-03-16T18:23:30.883Z,3.22
2023-03-16T18:26:02.288Z,2.95
2023-03-16T18:28:33.001Z,3.67
2023-03-16T18:31:03.006Z,3.38
2023-03-16T18:33:33.701Z,4.13
2023-03-16T18:36:04.939Z,3.47
2023-03-16T18:38:34.727Z,3.30
2023-03-16T18:41:11.758Z,3.40
2023-03-16T18:43:41.625Z,3.65
2023-03-16T18:46:25.254Z,3.15
2023-03-16T18:48:55.984Z,3.63
2023-03-16T18:51:25.387Z,4.32
2023-03-16T18:53:54.686Z,6.03
2023-03-16T18:56:24.819Z,6.32
2023-03-16T18:58:55.386Z,5.40
2023-03-16T19:01:25.938Z,4.70
2023-03-16T19:03:55.946Z,2.80
2023-03-16T19:06:29.769Z,2.95
2023-03-16T19:11:28.478Z,2.75
2023-03-16T19:13:57.762Z,3.78
2023-03-16T19:16:25.765Z,3.60
2023-03-16T19:18:53.706Z,4.30
2023-03-16T19:21:23.672Z,5.15
2023-03-16T19:23:58.036Z,4.22
2023-03-16T19:26:26.327Z,4.93
2023-03-16T19:28:54.463Z,4.55
2023-03-16T19:31:28.116Z,4.55
2023-03-16T19:33:57.057Z,3.17
2023-03-16T19:36:27.217Z,5.22
2023-03-16T19:38:55.285Z,4.40
2023-03-16T19:41:26.979Z,2.28
2023-03-16T19:43:57.859Z,2.65
2023-03-16T19:46:28.397Z,2.63
2023-03-16T19:48:57.283Z,2.22
2023-03-16T19:51:29.032Z,2.13
2023-03-16T19:53:56.996Z,2.33
2023-03-16T19:56:26.847Z,2.40
2023-03-16T19:58:55.750Z,2.47
2023-03-16T20:01:32.421Z,2.88
2023-03-16T20:04:01.595Z,2.67
2023-03-16T20:06:29.593Z,2.88
2023-03-16T20:08:57.490Z,2.90
2023-03-16T20:11:29.833Z,3.25
2023-03-16T20:13:59.202Z,3.40
2023-03-16T20:16:31.159Z,2.60
2023-03-16T20:19:00.749Z,3.10
2023-03-16T20:21:28.896Z,3.70
2023-03-16T20:23:57.253Z,5.10
2023-03-16T20:26:29.118Z,4.72
2023-03-16T20:28:57.441Z,5.22
2023-03-16T20:31:29.760Z,5.82
2023-03-16T20:33:57.724Z,6.03
2023-03-16T20:36:26.470Z,5.97
2023-03-16T20:38:54.471Z,4.70
2023-03-16T20:41:26.749Z,3.10
2023-03-16T20:43:55.768Z,2.92
2023-03-16T20:46:26.315Z,2.35
2023-03-16T20:48:55.853Z,2.63
2023-03-16T20:51:24.684Z,2.13
2023-03-16T20:53:53.184Z,2.22
2023-03-16T20:56:25.882Z,2.40
2023-03-16T20:58:56.120Z,3.17
2023-03-16T21:01:25.142Z,2.67
2023-03-16T21:03:56.986Z,2.90
2023-03-16T21:06:27.654Z,2.10
2023-03-16T21:08:57.434Z,2.20
2023-03-16T21:11:28.679Z,2.47
2023-03-16T21:13:57.382Z,2.22
2023-03-16T21:16:25.472Z,2.78
2023-03-16T21:18:55.110Z,1.92
2023-03-16T21:21:24.213Z,2.45
2023-03-16T21:23:52.164Z,2.58
2023-03-16T21:26:22.982Z,2.40
2023-03-16T21:28:57.222Z,2.75
2023-03-16T21:31:26.528Z,2.85
2023-03-16T21:33:56.751Z,2.50
2023-03-16T21:36:26.630Z,3.45
2023-03-16T21:38:58.018Z,2.47
2023-03-16T21:41:25.988Z,2.40
2023-03-16T21:43:54.602Z,2.40
2023-03-16T21:46:25.556Z,2.38
2023-03-16T21:48:56.853Z,2.17
2023-03-16T21:51:30.282Z,2.95
2023-03-16T21:53:58.532Z,2.83
2023-03-16T21:56:28.354Z,2.38
2023-03-16T21:58:56.384Z,2.45
2023-03-16T22:01:27.743Z,2.15
2023-03-16T22:04:01.185Z,2.65
2023-03-16T22:06:29.869Z,2.75
2023-03-16T22:08:58.642Z,2.17
2023-03-16T22:11:28.396Z,2.03
2023-03-16T22:13:57.742Z,2.53
2023-03-16T22:16:28.102Z,2.33
2023-03-16T22:18:58.965Z,2.60
2023-03-16T22:21:32.713Z,2.20
2023-03-16T22:24:05.910Z,2.35
2023-03-16T22:29:03.368Z,1.85
2023-03-16T22:31:35.041Z,2.22
2023-03-16T22:34:05.033Z,1.80
2023-03-16T22:36:34.470Z,2.05
2023-03-16T22:39:05.513Z,1.95
2023-03-16T22:41:33.600Z,1.83
2023-03-16T22:44:02.226Z,1.55
2023-03-16T22:46:31.041Z,1.85
2023-03-16T22:48:59.016Z,1.60
2023-03-16T22:51:33.128Z,1.42
2023-03-16T22:54:05.315Z,1.80
2023-03-16T22:56:34.970Z,1.55
2023-03-16T22:59:05.922Z,2.17
2023-03-16T23:01:36.032Z,2.60
2023-03-16T23:04:39.951Z,2.60
2023-03-16T23:07:12.574Z,3.22
2023-03-16T23:09:41.457Z,2.45
2023-03-16T23:12:15.614Z,1.90
2023-03-16T23:14:43.597Z,2.20
2023-03-16T23:17:17.991Z,3.10
2023-03-16T23:19:46.712Z,2.25
2023-03-16T23:22:17.971Z,2.00
2023-03-16T23:24:46.485Z,2.97
2023-03-16T23:27:18.658Z,2.67
2023-03-16T23:29:47.235Z,2.58
2023-03-16T23:32:16.917Z,2.63
2023-03-16T23:34:45.216Z,2.53
2023-03-16T23:37:13.500Z,2.30
2023-03-16T23:39:44.007Z,2.05
2023-03-16T23:42:12.745Z,2.55
2023-03-16T23:44:41.203Z,2.55
2023-03-16T23:47:12.155Z,2.50
2023-03-16T23:49:42.329Z,1.92
2023-03-16T23:52:12.267Z,2.20
2023-03-16T23:54:41.235Z,1.75
2023-03-16T23:57:11.175Z,1.80
2023-03-16T23:59:39.551Z,2.47
